createdAt,value
2019-05-15T00:01:32.908Z,8.28
2019-05-15T00:04:03.378Z,8.35
2019-05-15T00:06:34.048Z,8.42
2019-05-15T00:09:08.130Z,8.44
2019-05-15T00:11:39.200Z,8.42
2019-05-15T00:14:09.992Z,8.40
2019-05-15T00:16:42.004Z,8.39
2019-05-15T00:19:12.376Z,8.50
2019-05-15T00:21:43.029Z,8.56
2019-05-15T00:24:13.446Z,8.65
2019-05-15T00:26:43.738Z,8.80
2019-05-15T00:29:16.245Z,8.76
2019-05-15T00:31:48.569Z,8.74
2019-05-15T00:34:18.526Z,8.72
2019-05-15T00:36:49.171Z,8.66
2019-05-15T00:39:19.456Z,8.63
2019-05-15T00:41:54.744Z,8.59
2019-05-15T00:44:23.770Z,8.53
2019-05-15T00:46:54.091Z,8.47
2019-05-15T00:49:24.397Z,8.44
2019-05-15T00:51:59.013Z,8.37
2019-05-15T00:54:28.816Z,8.37
2019-05-15T00:57:00.577Z,8.34
2019-05-15T00:59:32.220Z,8.28
2019-05-15T01:02:04.404Z,8.21
2019-05-15T01:04:34.669Z,8.18
2019-05-15T01:07:05.191Z,8.17
2019-05-15T01:09:35.774Z,8.12
2019-05-15T01:12:06.066Z,8.08
2019-05-15T01:14:38.590Z,8.03
2019-05-15T01:17:09.206Z,7.94
2019-05-15T01:19:39.550Z,7.82
2019-05-15T01:22:09.849Z,7.75
2019-05-15T01:24:40.173Z,7.69
2019-05-15T01:27:10.849Z,7.78
2019-05-15T01:29:45.000Z,7.80
2019-05-15T01:32:13.261Z,7.85
2019-05-15T01:34:44.090Z,7.86
2019-05-15T01:37:14.632Z,7.88
2019-05-15T01:39:44.912Z,7.81
2019-05-15T01:42:15.226Z,7.74
2019-05-15T01:44:48.240Z,7.71
2019-05-15T01:47:19.136Z,7.68
2019-05-15T01:49:50.167Z,7.64
2019-05-15T01:52:20.662Z,7.62
2019-05-15T01:54:50.939Z,7.53
2019-05-15T01:57:21.267Z,7.42
2019-05-15T01:59:57.400Z,7.33
2019-05-15T02:02:25.024Z,7.23
2019-05-15T02:04:59.206Z,7.09
2019-05-15T02:07:29.434Z,7.03
2019-05-15T02:10:00.903Z,7.02
2019-05-15T02:12:31.206Z,6.91
2019-05-15T02:15:01.580Z,6.90
2019-05-15T02:17:33.208Z,6.92
2019-05-15T02:20:03.907Z,6.97
2019-05-15T02:22:34.485Z,6.99
2019-05-15T02:25:05.367Z,7.00
2019-05-15T02:27:35.910Z,6.94
2019-05-15T02:30:17.874Z,6.91
2019-05-15T02:32:40.268Z,6.87
2019-05-15T02:35:11.098Z,6.82
2019-05-15T02:37:41.626Z,6.78
2019-05-15T02:40:12.239Z,6.71
2019-05-15T02:42:42.792Z,6.73
2019-05-15T02:45:13.372Z,6.80
2019-05-15T02:47:43.751Z,6.77
2019-05-15T02:50:14.320Z,6.74
2019-05-15T02:52:49.474Z,6.70
2019-05-15T02:55:19.728Z,6.65
2019-05-15T02:57:54.725Z,6.66
2019-05-15T03:00:37.821Z,6.61
2019-05-15T03:03:00.127Z,6.55
2019-05-15T03:05:30.672Z,6.52
2019-05-15T03:08:01.234Z,6.51
2019-05-15T03:10:31.557Z,6.53
2019-05-15T03:13:02.667Z,6.55
2019-05-15T03:15:33.041Z,6.47
2019-05-15T03:18:05.661Z,6.47
2019-05-15T03:20:38.638Z,6.49
2019-05-15T03:23:09.712Z,6.48
2019-05-15T03:25:40.914Z,6.43
2019-05-15T03:28:14.044Z,6.42
2019-05-15T03:31:13.533Z,6.45
2019-05-15T03:33:26.278Z,6.42
2019-05-15T03:35:54.500Z,6.41
2019-05-15T03:38:23.083Z,6.42
2019-05-15T03:40:53.481Z,6.42
2019-05-15T03:43:24.507Z,6.44
2019-05-15T03:45:55.055Z,6.52
2019-05-15T03:48:28.837Z,6.43
2019-05-15T03:50:59.791Z,6.35
2019-05-15T03:53:30.629Z,6.30
2019-05-15T03:56:01.077Z,6.34
2019-05-15T03:58:31.344Z,6.31
2019-05-15T04:01:01.749Z,6.26
2019-05-15T04:03:32.108Z,6.27
2019-05-15T04:06:04.043Z,6.33
2019-05-15T04:08:34.299Z,6.47
2019-05-15T04:11:08.888Z,6.59
2019-05-15T04:13:39.743Z,6.61
2019-05-15T04:16:10.710Z,6.61
2019-05-15T04:18:42.160Z,6.62
2019-05-15T04:21:12.774Z,6.69
2019-05-15T04:23:43.384Z,6.73
2019-05-15T04:26:14.144Z,6.83
2019-05-15T04:28:49.449Z,6.83
2019-05-15T04:31:20.644Z,6.99
2019-05-15T04:33:51.284Z,6.99
2019-05-15T04:36:21.532Z,7.06
2019-05-15T04:38:51.976Z,7.22
2019-05-15T04:41:23.819Z,7.26
2019-05-15T04:43:54.182Z,7.19
2019-05-15T04:46:25.052Z,7.18
2019-05-15T04:48:55.354Z,7.18
2019-05-15T04:51:25.965Z,7.17
2019-05-15T04:53:58.679Z,7.19
2019-05-15T04:56:30.766Z,7.19
2019-05-15T04:59:01.005Z,7.22
2019-05-15T05:01:33.545Z,7.23
2019-05-15T05:04:03.829Z,7.26
2019-05-15T05:06:38.477Z,7.30
2019-05-15T05:09:09.198Z,7.36
2019-05-15T05:11:39.941Z,7.39
2019-05-15T05:14:10.613Z,7.45
2019-05-15T05:16:41.005Z,7.48
2019-05-15T05:19:11.713Z,7.58
2019-05-15T05:21:42.211Z,7.73
2019-05-15T05:24:12.462Z,7.84
2019-05-15T05:26:42.731Z,7.98
2019-05-15T05:29:13.333Z,8.41
2019-05-15T05:31:43.787Z,8.80
2019-05-15T05:34:14.351Z,8.76
2019-05-15T05:36:44.683Z,8.68
2019-05-15T05:39:17.667Z,8.62
2019-05-15T05:41:48.739Z,8.66
2019-05-15T05:44:19.452Z,8.66
2019-05-15T05:46:49.917Z,8.55
2019-05-15T05:49:23.744Z,8.47
2019-05-15T05:51:54.073Z,8.45
2019-05-15T05:54:28.652Z,8.55
2019-05-15T05:56:58.647Z,8.63
2019-05-15T05:59:30.064Z,8.72
2019-05-15T06:02:00.549Z,8.83
2019-05-15T06:04:31.483Z,8.88
2019-05-15T06:07:09.474Z,8.90
2019-05-15T06:09:34.038Z,8.96
2019-05-15T06:12:04.368Z,8.98
2019-05-15T06:14:34.647Z,9.01
2019-05-15T06:17:05.259Z,9.11
2019-05-15T06:19:35.593Z,9.20
2019-05-15T06:22:08.590Z,9.34
2019-05-15T06:24:38.078Z,9.42
2019-05-15T06:27:10.059Z,9.51
2019-05-15T06:29:40.694Z,9.58
2019-05-15T06:32:11.329Z,9.71
2019-05-15T06:34:41.610Z,9.91
2019-05-15T06:37:12.062Z,10.38
2019-05-15T06:39:42.355Z,10.38
2019-05-15T06:42:12.930Z,10.43
2019-05-15T06:44:43.203Z,10.50
2019-05-15T06:47:17.947Z,10.60
2019-05-15T06:49:48.605Z,10.78
2019-05-15T06:52:19.310Z,11.03
2019-05-15T06:54:49.648Z,10.98
2019-05-15T06:57:20.242Z,11.05
2019-05-15T06:59:50.540Z,11.19
2019-05-15T07:02:22.287Z,11.79
2019-05-15T07:04:52.645Z,11.86
2019-05-15T07:07:23.203Z,11.75
2019-05-15T07:09:53.493Z,11.51
2019-05-15T07:12:23.833Z,11.45
2019-05-15T07:14:54.479Z,11.53
2019-05-15T07:17:25.053Z,11.54
2019-05-15T07:19:55.647Z,11.59
2019-05-15T07:22:25.963Z,11.48
2019-05-15T07:24:58.194Z,11.52
2019-05-15T07:27:28.995Z,11.75
2019-05-15T07:29:59.561Z,12.79
2019-05-15T07:32:30.003Z,14.53
2019-05-15T07:35:00.506Z,16.25
2019-05-15T07:37:30.928Z,15.76
2019-05-15T07:40:02.147Z,15.09
2019-05-15T07:42:38.894Z,16.51
2019-05-15T07:45:10.016Z,20.27
2019-05-15T07:47:40.617Z,23.05
2019-05-15T07:50:12.995Z,24.62
2019-05-15T07:52:44.566Z,25.17
2019-05-15T07:55:18.486Z,24.76
2019-05-15T07:57:49.676Z,25.44
2019-05-15T08:00:22.543Z,26.81
2019-05-15T08:02:53.960Z,27.03
2019-05-15T08:05:25.827Z,26.83
2019-05-15T08:07:58.127Z,26.83
2019-05-15T08:10:29.846Z,27.22
2019-05-15T08:13:02.240Z,25.73
2019-05-15T08:15:33.014Z,26.23
2019-05-15T08:18:09.085Z,25.99
2019-05-15T08:20:38.482Z,28.10
2019-05-15T08:23:08.642Z,26.92
2019-05-15T08:25:39.551Z,26.50
2019-05-15T08:28:10.115Z,26.29
2019-05-15T08:30:41.206Z,26.90
2019-05-15T08:33:11.818Z,27.69
2019-05-15T08:35:45.886Z,26.83
2019-05-15T08:38:14.575Z,26.83
2019-05-15T08:40:45.174Z,25.86
2019-05-15T08:43:18.452Z,26.93
2019-05-15T08:45:50.368Z,27.01
2019-05-15T08:48:20.915Z,27.43
2019-05-15T08:50:51.789Z,26.99
2019-05-15T08:53:22.166Z,26.86
2019-05-15T08:55:55.860Z,27.09
2019-05-15T08:58:26.205Z,26.77
2019-05-15T09:00:58.690Z,27.77
2019-05-15T09:03:31.285Z,27.37
2019-05-15T09:06:01.918Z,29.27
2019-05-15T09:08:32.525Z,29.80
2019-05-15T09:11:05.480Z,28.17
2019-05-15T09:13:42.177Z,27.68
2019-05-15T09:16:10.340Z,28.37
2019-05-15T09:18:41.036Z,26.57
2019-05-15T09:21:11.576Z,26.06
2019-05-15T09:23:42.164Z,28.03
2019-05-15T09:26:12.718Z,30.41
2019-05-15T09:28:43.298Z,31.69
2019-05-15T09:31:19.248Z,31.43
2019-05-15T09:33:49.932Z,29.35
2019-05-15T09:36:21.094Z,28.63
2019-05-15T09:38:51.498Z,28.47
2019-05-15T09:41:22.050Z,28.40
2019-05-15T09:44:15.750Z,30.01
2019-05-15T09:46:59.431Z,31.32
2019-05-15T09:49:35.686Z,28.93
2019-05-15T09:52:25.802Z,28.94
2019-05-15T09:55:08.559Z,30.16
2019-05-15T09:57:49.033Z,30.56
2019-05-15T10:00:33.705Z,27.83
2019-05-15T10:03:19.043Z,29.58
2019-05-15T10:05:53.879Z,29.80
2019-05-15T10:08:35.551Z,26.66
2019-05-15T10:11:10.435Z,28.33
2019-05-15T10:13:45.293Z,27.51
2019-05-15T10:16:19.557Z,26.42
2019-05-15T10:18:52.432Z,27.80
2019-05-15T10:21:23.017Z,27.86
2019-05-15T10:23:54.570Z,28.99
2019-05-15T10:26:25.151Z,28.30
2019-05-15T10:28:58.256Z,29.59
2019-05-15T10:31:28.371Z,28.18
2019-05-15T10:33:59.048Z,28.71
2019-05-15T10:36:29.670Z,28.71
2019-05-15T10:39:00.137Z,29.86
2019-05-15T10:41:30.833Z,28.21
2019-05-15T10:44:01.394Z,29.77
2019-05-15T10:46:32.011Z,31.08
2019-05-15T10:49:02.437Z,29.90
2019-05-15T10:51:32.997Z,27.20
2019-05-15T10:54:03.573Z,26.47
2019-05-15T10:56:34.131Z,26.13
2019-05-15T10:59:04.823Z,27.11
2019-05-15T11:01:35.179Z,26.65
2019-05-15T11:04:08.888Z,25.55
2019-05-15T11:06:38.474Z,26.37
2019-05-15T11:09:10.605Z,26.35
2019-05-15T11:11:41.239Z,26.46
2019-05-15T11:14:14.382Z,26.85
2019-05-15T11:16:48.670Z,27.01
2019-05-15T11:19:17.213Z,26.56
2019-05-15T11:21:48.700Z,24.68
2019-05-15T11:24:19.760Z,25.62
2019-05-15T11:26:50.510Z,26.70
2019-05-15T11:29:22.353Z,25.84
2019-05-15T11:31:52.964Z,25.88
2019-05-15T11:34:23.582Z,25.97
2019-05-15T11:36:54.163Z,24.56
2019-05-15T11:39:24.943Z,24.58
2019-05-15T11:41:55.264Z,25.54
2019-05-15T11:44:28.110Z,25.87
2019-05-15T11:46:58.787Z,25.08
2019-05-15T11:49:29.731Z,25.74
2019-05-15T11:52:00.794Z,25.58
2019-05-15T11:54:32.923Z,25.64
2019-05-15T11:57:03.582Z,26.07
2019-05-15T11:59:34.183Z,26.02
2019-05-15T12:02:04.906Z,23.70
2019-05-15T12:04:38.173Z,23.84
2019-05-15T12:07:08.703Z,24.12
2019-05-15T12:09:39.503Z,24.12
2019-05-15T12:12:11.487Z,23.62
2019-05-15T12:14:42.083Z,22.17
2019-05-15T12:17:15.458Z,22.53
2019-05-15T12:19:54.968Z,22.81
2019-05-15T12:22:18.644Z,22.20
2019-05-15T12:24:50.232Z,21.23
2019-05-15T12:27:22.139Z,21.55
2019-05-15T12:29:54.514Z,20.43
2019-05-15T12:32:33.295Z,19.75
2019-05-15T12:35:05.052Z,20.41
2019-05-15T12:37:40.445Z,20.27
2019-05-15T13:00:32.674Z,16.73
2019-05-15T13:03:03.432Z,17.15
2019-05-15T13:05:35.598Z,17.15
2019-05-15T13:08:08.120Z,17.17
2019-05-15T13:10:38.959Z,17.09
2019-05-15T13:13:10.009Z,17.19
2019-05-15T13:15:41.820Z,17.36
2019-05-15T13:18:14.370Z,17.46
2019-05-15T13:20:44.264Z,17.42
2019-05-15T13:23:14.865Z,17.40
2019-05-15T13:25:45.295Z,17.70
2019-05-15T13:28:18.156Z,17.64
2019-05-15T13:30:49.053Z,17.64
2019-05-15T13:33:21.146Z,17.25
2019-05-15T13:35:51.790Z,17.14
2019-05-15T13:38:22.823Z,17.14
2019-05-15T13:40:53.105Z,17.20
2019-05-15T13:43:23.827Z,17.04
2019-05-15T13:45:54.457Z,16.84
2019-05-15T13:48:28.960Z,16.74
2019-05-15T13:51:00.460Z,16.90
2019-05-15T13:53:31.003Z,16.86
2019-05-15T13:56:01.818Z,17.11
2019-05-15T13:58:33.633Z,17.06
2019-05-15T14:01:04.294Z,16.81
2019-05-15T14:03:34.814Z,16.58
2019-05-15T14:06:05.526Z,16.76
2019-05-15T14:08:38.326Z,16.89
2019-05-15T14:11:09.890Z,17.11
2019-05-15T14:13:40.637Z,17.13
2019-05-15T14:16:11.192Z,17.20
2019-05-15T14:18:42.175Z,17.34
2019-05-15T14:21:13.613Z,17.39
2019-05-15T14:23:47.712Z,17.35
2019-05-15T14:26:22.523Z,17.34
2019-05-15T14:28:48.726Z,17.22
2019-05-15T14:31:24.070Z,17.44
2019-05-15T14:33:58.014Z,17.64
2019-05-15T14:36:28.886Z,17.48
2019-05-15T14:38:59.549Z,17.48
2019-05-15T14:41:32.870Z,17.32
2019-05-15T14:46:39.259Z,17.06
2019-05-15T14:49:10.327Z,17.09
2019-05-15T14:51:40.914Z,17.13
2019-05-15T14:54:11.416Z,17.19
2019-05-15T14:56:42.159Z,17.30
2019-05-15T14:59:12.851Z,17.31
2019-05-15T15:01:43.291Z,16.97
2019-05-15T15:04:14.312Z,17.13
2019-05-15T15:06:48.682Z,17.18
2019-05-15T15:09:23.422Z,17.21
2019-05-15T15:11:53.873Z,17.21
2019-05-15T15:14:24.323Z,17.29
2019-05-15T15:16:55.221Z,17.43
2019-05-15T15:19:25.836Z,17.36
2019-05-15T15:21:58.030Z,17.20
2019-05-15T15:24:31.378Z,16.98
2019-05-15T15:27:01.763Z,16.64
2019-05-15T15:29:32.657Z,16.72
2019-05-15T15:32:03.020Z,16.78
2019-05-15T15:34:33.649Z,16.92
2019-05-15T15:37:05.536Z,16.88
2019-05-15T15:39:38.754Z,16.88
2019-05-15T15:42:09.636Z,16.86
2019-05-15T15:44:42.107Z,17.16
2019-05-15T15:47:13.692Z,17.18
2019-05-15T15:49:44.264Z,16.98
2019-05-15T15:52:18.354Z,16.76
2019-05-15T15:54:49.112Z,16.40
2019-05-15T15:57:19.784Z,16.22
2019-05-15T15:59:53.526Z,16.22
2019-05-15T16:02:28.118Z,16.40
2019-05-15T16:04:59.037Z,16.57
2019-05-15T16:07:33.912Z,16.48
2019-05-15T16:10:04.914Z,16.48
2019-05-15T16:12:35.240Z,16.51
2019-05-15T16:15:08.588Z,16.64
2019-05-15T16:17:40.521Z,16.69
2019-05-15T16:20:12.580Z,16.53
2019-05-15T16:22:43.836Z,16.44
2019-05-15T16:25:14.271Z,16.44
2019-05-15T16:27:46.248Z,16.45
2019-05-15T16:30:18.776Z,16.42
2019-05-15T16:32:49.965Z,16.46
2019-05-15T16:35:20.259Z,16.40
2019-05-15T16:37:52.694Z,16.41
2019-05-15T16:40:23.311Z,16.36
2019-05-15T16:42:53.953Z,16.39
2019-05-15T16:45:24.744Z,16.42
2019-05-15T16:47:58.534Z,16.41
2019-05-15T16:50:28.706Z,16.16
2019-05-15T16:52:59.499Z,16.07
2019-05-15T16:55:31.099Z,16.03
2019-05-15T16:58:01.588Z,15.78
2019-05-15T17:00:32.356Z,15.79
2019-05-15T17:03:13.605Z,15.77
2019-05-15T17:05:40.709Z,15.68
2019-05-15T17:08:11.289Z,16.08
2019-05-15T17:10:41.902Z,16.08
2019-05-15T17:13:12.477Z,16.08
2019-05-15T17:15:53.028Z,15.90
2019-05-15T17:18:26.544Z,15.74
2019-05-15T17:20:59.173Z,15.51
2019-05-15T17:23:29.819Z,15.46
2019-05-15T17:26:00.753Z,15.51
2019-05-15T17:28:31.665Z,15.56
2019-05-15T17:31:04.104Z,15.62
2019-05-15T17:33:43.233Z,15.66
2019-05-15T17:36:19.056Z,15.65
2019-05-15T17:38:52.479Z,15.80
2019-05-15T17:41:23.004Z,15.99
2019-05-15T17:43:54.850Z,16.20
2019-05-15T17:46:25.186Z,16.31
2019-05-15T17:48:59.297Z,16.30
2019-05-15T17:51:27.948Z,16.23
2019-05-15T17:53:58.840Z,16.05
2019-05-15T17:56:29.456Z,15.79
2019-05-15T17:59:00.036Z,15.62
2019-05-15T18:01:30.594Z,15.45
2019-05-15T18:04:01.814Z,15.32
2019-05-15T18:06:39.848Z,15.11
2019-05-15T18:09:12.385Z,14.92
2019-05-15T18:11:44.543Z,14.70
2019-05-15T18:14:19.018Z,14.58
2019-05-15T18:16:50.910Z,14.53
2019-05-15T18:19:22.158Z,14.53
2019-05-15T18:21:52.486Z,14.54
2019-05-15T18:24:26.642Z,14.49
2019-05-15T18:26:58.444Z,14.47
2019-05-15T18:29:31.977Z,14.42
2019-05-15T18:32:02.608Z,14.33
2019-05-15T18:34:35.423Z,14.30
2019-05-15T18:37:08.542Z,14.30
2019-05-15T18:39:41.281Z,14.31
2019-05-15T18:42:11.930Z,14.25
2019-05-15T18:44:44.163Z,14.16
2019-05-15T18:47:14.788Z,14.09
2019-05-15T18:50:03.691Z,13.99
2019-05-15T18:52:20.404Z,13.89
2019-05-15T18:54:51.292Z,13.89
2019-05-15T18:57:21.864Z,13.69
2019-05-15T18:59:52.448Z,13.53
2019-05-15T19:02:22.983Z,13.40
2019-05-15T19:04:53.495Z,13.20
2019-05-15T19:07:23.967Z,13.13
2019-05-15T19:09:54.510Z,13.04
2019-05-15T19:12:24.961Z,13.01
2019-05-15T19:14:55.231Z,12.95
2019-05-15T19:17:27.553Z,12.85
2019-05-15T19:20:00.072Z,12.73
2019-05-15T19:22:30.847Z,12.72
2019-05-15T19:25:01.258Z,12.71
2019-05-15T19:27:31.576Z,12.63
2019-05-15T19:30:02.000Z,12.55
2019-05-15T19:32:33.626Z,12.44
2019-05-15T19:35:04.263Z,12.35
2019-05-15T19:37:38.443Z,12.33
2019-05-15T19:40:09.660Z,12.26
2019-05-15T19:42:40.252Z,12.32
2019-05-15T19:45:12.196Z,12.31
2019-05-15T19:47:44.144Z,12.31
2019-05-15T19:50:18.126Z,12.35
2019-05-15T19:52:49.880Z,12.35
2019-05-15T19:55:22.629Z,12.25
2019-05-15T19:57:53.143Z,12.03
2019-05-15T20:00:24.264Z,12.03
2019-05-15T20:02:55.125Z,11.94
2019-05-15T20:05:28.991Z,11.85
2019-05-15T20:08:00.464Z,11.79
2019-05-15T20:10:31.011Z,11.69
2019-05-15T20:13:01.703Z,11.69
2019-05-15T20:15:32.158Z,11.61
2019-05-15T20:18:03.560Z,11.57
2019-05-15T20:20:34.249Z,11.56
2019-05-15T20:23:04.813Z,11.49
2019-05-15T20:25:38.210Z,11.47
2019-05-15T20:28:08.523Z,11.45
2019-05-15T20:30:39.142Z,11.41
2019-05-15T20:33:09.786Z,11.30
2019-05-15T20:35:40.133Z,11.20
2019-05-15T20:38:10.586Z,11.17
2019-05-15T20:40:41.245Z,11.10
2019-05-15T20:43:11.872Z,11.00
2019-05-15T20:45:42.224Z,10.92
2019-05-15T20:48:14.007Z,10.82
2019-05-15T20:50:44.318Z,10.74
2019-05-15T20:53:14.674Z,10.68
2019-05-15T20:55:45.203Z,10.60
2019-05-15T20:58:15.579Z,10.60
2019-05-15T21:00:46.178Z,10.53
2019-05-15T21:03:17.950Z,10.45
2019-05-15T21:05:48.923Z,10.39
2019-05-15T21:08:19.321Z,10.34
2019-05-15T21:10:51.478Z,10.26
2019-05-15T21:13:21.757Z,10.19
2019-05-15T21:15:52.558Z,10.11
2019-05-15T21:18:24.353Z,10.05
2019-05-15T21:20:54.765Z,10.04
2019-05-15T21:23:25.101Z,9.99
2019-05-15T21:25:55.414Z,10.01
2019-05-15T21:28:27.777Z,10.05
2019-05-15T21:30:58.194Z,10.11
2019-05-15T21:33:30.400Z,10.05
2019-05-15T21:36:01.901Z,9.94
2019-05-15T21:38:32.270Z,9.92
2019-05-15T21:41:02.587Z,9.93
2019-05-15T21:43:33.150Z,10.00
2019-05-15T21:46:03.589Z,10.03
2019-05-15T21:48:34.434Z,10.02
2019-05-15T21:51:04.776Z,9.96
2019-05-15T21:53:38.754Z,9.82
2019-05-15T21:56:08.668Z,9.88
2019-05-15T21:58:39.095Z,9.97
2019-05-15T22:01:10.672Z,9.99
2019-05-15T22:03:43.556Z,9.93
2019-05-15T22:06:14.269Z,9.81
2019-05-15T22:08:45.066Z,9.61
2019-05-15T22:11:15.364Z,9.61
2019-05-15T22:13:47.911Z,9.64
2019-05-15T22:16:18.996Z,9.63
2019-05-15T22:18:49.705Z,9.75
2019-05-15T22:21:20.064Z,9.82
2019-05-15T22:23:50.873Z,9.94
2019-05-15T22:26:21.581Z,10.03
2019-05-15T22:28:52.224Z,10.14
2019-05-15T22:31:22.673Z,10.19
2019-05-15T22:33:53.152Z,10.30
2019-05-15T22:36:23.724Z,10.28
2019-05-15T22:38:55.310Z,10.22
2019-05-15T22:41:27.905Z,10.15
2019-05-15T22:43:58.131Z,10.08
2019-05-15T22:46:29.104Z,10.07
2019-05-15T22:48:59.379Z,10.01
2019-05-15T22:51:29.982Z,9.89
2019-05-15T22:54:00.293Z,9.80
2019-05-15T22:56:30.904Z,9.67
2019-05-15T22:59:01.193Z,9.57
2019-05-15T23:01:33.659Z,9.46
2019-05-15T23:04:03.940Z,9.36
2019-05-15T23:06:34.282Z,9.21
2019-05-15T23:09:06.093Z,9.12
2019-05-15T23:11:39.256Z,9.08
2019-05-15T23:14:08.999Z,9.08
2019-05-15T23:16:41.223Z,9.12
2019-05-15T23:19:11.681Z,9.12
2019-05-15T23:21:42.019Z,9.13
2019-05-15T23:24:12.486Z,9.10
2019-05-15T23:26:42.932Z,9.02
2019-05-15T23:29:13.277Z,8.91
2019-05-15T23:31:43.560Z,8.84
2019-05-15T23:34:14.352Z,8.73
2019-05-15T23:36:44.844Z,8.67
2019-05-15T23:39:15.117Z,8.60
2019-05-15T23:41:45.616Z,8.54
2019-05-15T23:44:18.246Z,8.48
2019-05-15T23:46:48.717Z,8.48
2019-05-15T23:49:19.845Z,8.44
2019-05-15T23:51:50.500Z,8.39
2019-05-15T23:54:21.263Z,8.36
2019-05-15T23:56:51.529Z,8.37
2019-05-15T23:59:23.460Z,8.34
